createdAt,value
2018-05-25T00:00:37.157Z,18.59
2018-05-25T00:03:05.762Z,18.48
2018-05-25T00:05:33.525Z,18.44
2018-05-25T00:08:07.041Z,18.36
2018-05-25T00:10:37.366Z,18.30
2018-05-25T00:13:04.955Z,18.25
2018-05-25T00:15:32.607Z,18.18
2018-05-25T00:18:01.132Z,18.14
2018-05-25T00:20:29.673Z,18.09
2018-05-25T00:22:57.341Z,18.06
2018-05-25T00:25:25.132Z,18.02
2018-05-25T00:27:52.704Z,17.96
2018-05-25T00:30:20.296Z,17.90
2018-05-25T00:32:48.162Z,17.86
2018-05-25T00:35:15.769Z,17.83
2018-05-25T00:37:43.560Z,17.79
2018-05-25T00:40:11.111Z,17.79
2018-05-25T00:42:39.628Z,17.77
2018-05-25T00:45:08.063Z,17.75
2018-05-25T00:47:36.020Z,17.75
2018-05-25T00:50:03.690Z,17.73
2018-05-25T00:52:38.171Z,17.73
2018-05-25T00:55:17.605Z,17.74
2018-05-25T00:57:45.295Z,17.72
2018-05-25T01:00:12.873Z,17.74
2018-05-25T01:02:40.728Z,17.76
2018-05-25T01:05:08.372Z,17.77
2018-05-25T01:07:36.797Z,17.80
2018-05-25T01:10:04.460Z,17.85
2018-05-25T01:12:34.017Z,17.92
2018-05-25T01:15:01.720Z,17.94
2018-05-25T01:17:29.395Z,17.96
2018-05-25T01:19:57.101Z,17.99
2018-05-25T01:22:25.438Z,18.00
2018-05-25T01:24:53.244Z,17.99
2018-05-25T01:27:27.821Z,18.02
2018-05-25T01:29:55.483Z,18.03
2018-05-25T01:32:23.128Z,18.01
2018-05-25T01:34:54.553Z,18.00
2018-05-25T01:37:22.172Z,17.97
2018-05-25T01:39:49.896Z,17.94
2018-05-25T01:42:18.337Z,17.93
2018-05-25T01:44:46.028Z,17.92
2018-05-25T01:47:13.653Z,17.89
2018-05-25T01:49:41.216Z,17.90
2018-05-25T01:52:08.893Z,17.84
2018-05-25T01:54:36.800Z,17.84
2018-05-25T01:57:04.580Z,17.82
2018-05-25T01:59:32.235Z,17.82
2018-05-25T02:01:59.920Z,17.76
2018-05-25T02:04:27.772Z,17.77
2018-05-25T02:06:55.381Z,17.81
2018-05-25T02:09:23.036Z,17.81
2018-05-25T02:11:50.633Z,17.83
2018-05-25T02:14:18.239Z,17.81
2018-05-25T02:16:45.921Z,17.85
2018-05-25T02:19:13.660Z,17.88
2018-05-25T02:21:41.268Z,17.89
2018-05-25T02:24:08.940Z,17.92
2018-05-25T02:26:36.572Z,17.94
2018-05-25T02:29:04.192Z,17.91
2018-05-25T02:31:31.820Z,17.84
2018-05-25T02:33:59.482Z,17.79
2018-05-25T02:36:27.109Z,17.67
2018-05-25T02:38:54.912Z,17.53
2018-05-25T02:41:22.597Z,17.36
2018-05-25T02:43:51.407Z,17.18
2018-05-25T02:46:19.325Z,17.09
2018-05-25T02:48:46.960Z,17.02
2018-05-25T02:51:14.620Z,16.90
2018-05-25T02:53:43.619Z,16.84
2018-05-25T02:56:11.372Z,16.73
2018-05-25T02:58:39.745Z,16.66
2018-05-25T03:01:07.416Z,16.64
2018-05-25T03:03:35.116Z,16.58
2018-05-25T03:06:02.803Z,16.55
2018-05-25T03:08:31.341Z,16.56
2018-05-25T03:10:59.634Z,16.51
2018-05-25T03:13:27.558Z,16.57
2018-05-25T03:15:55.181Z,16.62
2018-05-25T03:18:22.891Z,16.69
2018-05-25T03:20:50.489Z,16.73
2018-05-25T03:23:18.844Z,16.82
2018-05-25T03:25:46.861Z,16.92
2018-05-25T03:28:14.482Z,17.00
2018-05-25T03:30:42.168Z,17.12
2018-05-25T03:33:09.806Z,17.25
2018-05-25T03:35:37.469Z,17.35
2018-05-25T03:38:05.182Z,17.50
2018-05-25T03:40:32.816Z,17.64
2018-05-25T03:43:00.474Z,17.76
2018-05-25T03:45:28.704Z,17.94
2018-05-25T03:47:56.390Z,18.09
2018-05-25T03:50:24.172Z,18.21
2018-05-25T03:52:51.820Z,18.40
2018-05-25T03:55:19.468Z,18.52
2018-05-25T03:57:47.120Z,18.69
2018-05-25T04:00:26.463Z,18.76
2018-05-25T04:02:54.125Z,18.76
2018-05-25T04:05:21.861Z,18.89
2018-05-25T04:07:50.368Z,19.12
2018-05-25T04:10:18.021Z,19.29
2018-05-25T04:12:45.732Z,19.64
2018-05-25T04:15:13.385Z,20.71
2018-05-25T04:17:40.985Z,21.75
2018-05-25T04:20:09.220Z,22.39
2018-05-25T04:22:36.896Z,22.98
2018-05-25T04:25:04.530Z,23.78
2018-05-25T04:27:32.225Z,24.37
2018-05-25T04:29:59.967Z,24.52
2018-05-25T04:32:27.629Z,24.72
2018-05-25T04:34:55.270Z,24.79
2018-05-25T04:37:22.910Z,25.36
2018-05-25T04:39:50.540Z,26.20
2018-05-25T04:42:18.193Z,26.48
2018-05-25T04:44:45.933Z,27.02
2018-05-25T04:47:13.534Z,27.34
2018-05-25T04:49:41.250Z,28.10
2018-05-25T04:52:08.840Z,28.75
2018-05-25T04:54:36.465Z,28.83
2018-05-25T04:57:04.147Z,29.65
2018-05-25T04:59:31.722Z,30.28
2018-05-25T05:01:59.350Z,30.40
2018-05-25T05:04:26.959Z,31.06
2018-05-25T05:06:54.608Z,32.03
2018-05-25T05:09:22.348Z,31.01
2018-05-25T05:11:49.970Z,30.61
2018-05-25T05:14:17.656Z,30.48
2018-05-25T05:16:45.385Z,30.70
2018-05-25T05:19:13.083Z,31.26
2018-05-25T05:21:40.657Z,31.28
2018-05-25T05:24:09.113Z,31.66
2018-05-25T05:26:36.809Z,32.46
2018-05-25T05:29:04.437Z,32.64
2018-05-25T05:31:32.088Z,32.75
2018-05-25T05:34:00.566Z,33.23
2018-05-25T05:36:38.497Z,34.20
2018-05-25T05:39:06.195Z,34.64
2018-05-25T05:41:34.084Z,34.99
2018-05-25T05:44:01.720Z,35.53
2018-05-25T05:46:29.338Z,35.80
2018-05-25T05:48:56.940Z,35.89
2018-05-25T05:51:24.545Z,36.23
2018-05-25T05:53:52.313Z,37.04
2018-05-25T05:56:19.926Z,36.29
2018-05-25T05:58:47.637Z,36.54
2018-05-25T06:01:16.140Z,36.95
2018-05-25T06:03:43.725Z,37.27
2018-05-25T06:06:11.341Z,37.24
2018-05-25T06:08:38.973Z,37.34
2018-05-25T06:11:06.691Z,36.94
2018-05-25T06:13:34.412Z,36.76
2018-05-25T06:16:01.982Z,36.22
2018-05-25T06:18:29.666Z,35.37
2018-05-25T06:20:57.258Z,34.90
2018-05-25T06:23:24.924Z,33.99
2018-05-25T06:25:52.544Z,33.85
2018-05-25T06:28:20.213Z,34.22
2018-05-25T06:31:05.345Z,34.08
2018-05-25T06:33:33.022Z,32.96
2018-05-25T06:36:01.496Z,32.10
2018-05-25T06:38:29.088Z,32.18
2018-05-25T06:40:56.666Z,31.57
2018-05-25T06:43:24.322Z,31.62
2018-05-25T06:45:52.083Z,32.02
2018-05-25T06:48:19.643Z,31.93
2018-05-25T06:50:47.286Z,31.40
2018-05-25T06:53:14.891Z,31.09
2018-05-25T06:55:42.472Z,30.74
2018-05-25T06:58:10.101Z,30.79
2018-05-25T07:00:37.749Z,30.87
2018-05-25T07:03:05.383Z,30.66
2018-05-25T07:05:33.167Z,30.44
2018-05-25T07:08:01.532Z,30.20
2018-05-25T07:10:30.105Z,29.92
2018-05-25T07:12:57.688Z,29.85
2018-05-25T07:15:25.382Z,29.97
2018-05-25T07:17:53.026Z,30.34
2018-05-25T07:20:20.778Z,30.22
2018-05-25T07:22:48.344Z,30.20
2018-05-25T07:25:16.004Z,29.92
2018-05-25T07:27:43.594Z,29.98
2018-05-25T07:30:11.228Z,30.00
2018-05-25T07:32:38.892Z,29.92
2018-05-25T07:35:06.452Z,30.11
2018-05-25T07:37:34.080Z,30.18
2018-05-25T07:40:01.755Z,30.43
2018-05-25T07:42:29.353Z,30.94
2018-05-25T07:44:57.011Z,31.28
2018-05-25T07:47:24.867Z,31.22
2018-05-25T07:49:52.439Z,31.28
2018-05-25T07:52:20.094Z,31.38
2018-05-25T07:54:47.713Z,31.27
2018-05-25T07:57:15.288Z,30.96
2018-05-25T07:59:42.840Z,30.48
2018-05-25T08:02:11.249Z,30.40
2018-05-25T08:04:39.102Z,30.39
2018-05-25T08:07:07.560Z,30.24
2018-05-25T08:09:35.161Z,30.48
2018-05-25T08:12:02.822Z,30.03
2018-05-25T08:14:30.469Z,29.85
2018-05-25T08:16:58.174Z,30.20
2018-05-25T08:19:25.744Z,30.39
2018-05-25T08:21:53.448Z,30.37
2018-05-25T08:24:21.041Z,30.78
2018-05-25T08:26:48.673Z,30.78
2018-05-25T08:29:16.300Z,30.86
2018-05-25T08:31:43.860Z,30.93
2018-05-25T08:34:11.484Z,30.83
2018-05-25T08:36:39.148Z,31.02
2018-05-25T08:39:06.798Z,30.81
2018-05-25T08:41:34.396Z,30.77
2018-05-25T08:44:01.985Z,30.47
2018-05-25T08:46:29.696Z,30.50
2018-05-25T08:48:57.385Z,30.57
2018-05-25T08:51:24.980Z,30.59
2018-05-25T08:53:52.622Z,30.75
2018-05-25T08:56:20.204Z,31.10
2018-05-25T08:58:47.818Z,31.25
2018-05-25T09:01:15.418Z,31.26
2018-05-25T09:03:43.076Z,31.47
2018-05-25T09:06:10.853Z,31.38
2018-05-25T09:08:38.504Z,31.26
2018-05-25T09:11:06.158Z,31.50
2018-05-25T09:13:33.812Z,31.65
2018-05-25T09:16:01.389Z,31.78
2018-05-25T09:18:28.948Z,31.58
2018-05-25T09:20:56.572Z,31.75
2018-05-25T09:23:24.156Z,31.82
2018-05-25T09:25:51.737Z,32.11
2018-05-25T09:28:19.304Z,32.05
2018-05-25T09:30:46.906Z,32.04
2018-05-25T09:33:14.502Z,31.93
2018-05-25T09:35:42.093Z,31.85
2018-05-25T09:38:09.716Z,31.86
2018-05-25T09:40:37.284Z,31.67
2018-05-25T09:43:04.848Z,31.90
2018-05-25T09:45:32.417Z,32.31
2018-05-25T09:48:00.041Z,32.71
2018-05-25T09:50:27.700Z,33.04
2018-05-25T09:52:55.296Z,33.44
2018-05-25T09:55:23.009Z,33.72
2018-05-25T09:57:56.643Z,33.89
2018-05-25T10:00:25.995Z,33.78
2018-05-25T10:02:53.569Z,33.72
2018-05-25T10:05:21.156Z,33.84
2018-05-25T10:07:48.736Z,33.99
2018-05-25T10:10:16.373Z,34.07
2018-05-25T10:12:43.939Z,34.07
2018-05-25T10:15:11.570Z,34.23
2018-05-25T10:17:39.196Z,34.47
2018-05-25T10:20:07.529Z,34.45
2018-05-25T10:22:35.158Z,34.02
2018-05-25T10:25:02.768Z,33.85
2018-05-25T10:27:30.396Z,33.83
2018-05-25T10:29:57.981Z,34.50
2018-05-25T10:32:25.559Z,34.75
2018-05-25T10:34:53.188Z,35.07
2018-05-25T10:37:20.753Z,35.22
2018-05-25T10:39:48.340Z,35.49
2018-05-25T10:42:16.007Z,35.85
2018-05-25T10:44:43.612Z,35.87
2018-05-25T10:47:11.258Z,36.45
2018-05-25T10:49:38.856Z,36.51
2018-05-25T10:52:06.500Z,36.62
2018-05-25T10:54:34.084Z,36.43
2018-05-25T10:57:01.657Z,36.71
2018-05-25T10:59:29.300Z,36.65
2018-05-25T11:01:56.928Z,36.89
2018-05-25T11:04:24.505Z,36.99
2018-05-25T11:06:52.086Z,37.56
2018-05-25T11:09:19.720Z,37.95
2018-05-25T11:11:47.304Z,38.38
2018-05-25T11:14:14.918Z,38.96
2018-05-25T11:16:42.545Z,38.78
2018-05-25T11:19:10.150Z,38.45
2018-05-25T11:21:37.753Z,38.61
2018-05-25T11:24:05.332Z,38.69
2018-05-25T11:26:32.992Z,37.68
2018-05-25T11:29:00.637Z,37.80
2018-05-25T11:31:28.251Z,38.32
2018-05-25T11:33:55.862Z,37.73
2018-05-25T11:36:23.457Z,36.50
2018-05-25T11:38:51.093Z,35.24
2018-05-25T11:41:18.694Z,35.44
2018-05-25T11:43:46.345Z,35.99
2018-05-25T11:46:13.977Z,36.98
2018-05-25T11:48:41.573Z,37.79
2018-05-25T11:51:09.160Z,37.21
2018-05-25T11:53:36.725Z,37.60
2018-05-25T11:56:04.331Z,37.69
2018-05-25T11:58:31.904Z,38.19
2018-05-25T12:00:59.513Z,39.10
2018-05-25T12:03:27.109Z,40.17
2018-05-25T12:05:54.724Z,39.94
2018-05-25T12:08:22.329Z,39.35
2018-05-25T12:10:49.892Z,39.70
2018-05-25T12:13:17.524Z,39.68
2018-05-25T12:15:45.142Z,39.99
2018-05-25T12:18:12.792Z,40.26
2018-05-25T12:20:40.403Z,40.39
2018-05-25T12:23:08.041Z,40.03
2018-05-25T12:25:35.616Z,40.34
2018-05-25T12:28:03.222Z,38.80
2018-05-25T12:30:30.797Z,37.70
2018-05-25T12:32:58.455Z,37.70
2018-05-25T12:35:26.068Z,38.55
2018-05-25T12:37:53.642Z,39.06
2018-05-25T12:40:21.283Z,38.49
2018-05-25T12:42:48.844Z,38.39
2018-05-25T12:45:16.417Z,38.07
2018-05-25T12:47:44.009Z,38.05
2018-05-25T12:50:11.632Z,37.18
2018-05-25T12:52:39.216Z,35.82
2018-05-25T12:55:06.811Z,34.89
2018-05-25T12:57:34.427Z,34.30
2018-05-25T13:00:02.011Z,33.83
2018-05-25T13:02:29.609Z,32.83
2018-05-25T13:04:57.599Z,31.78
2018-05-25T13:07:25.311Z,30.96
2018-05-25T13:09:52.904Z,30.37
2018-05-25T13:12:20.580Z,29.73
2018-05-25T13:14:48.172Z,28.75
2018-05-25T13:17:15.765Z,27.52
2018-05-25T13:19:43.373Z,26.49
2018-05-25T13:22:10.976Z,25.81
2018-05-25T13:24:38.578Z,25.07
2018-05-25T13:27:06.252Z,24.71
2018-05-25T13:29:33.895Z,24.40
2018-05-25T13:32:01.552Z,24.13
2018-05-25T13:34:29.180Z,23.88
2018-05-25T13:36:56.752Z,23.75
2018-05-25T13:39:24.345Z,23.65
2018-05-25T13:41:51.953Z,23.35
2018-05-25T13:44:19.518Z,23.24
2018-05-25T13:46:47.204Z,22.92
2018-05-25T13:49:15.002Z,22.29
2018-05-25T13:51:42.626Z,21.51
2018-05-25T13:54:11.145Z,20.59
2018-05-25T13:56:38.728Z,20.29
2018-05-25T13:59:06.364Z,20.04
2018-05-25T14:01:33.960Z,19.83
2018-05-25T14:04:01.541Z,19.71
2018-05-25T14:06:29.124Z,19.56
2018-05-25T14:08:56.785Z,19.41
2018-05-25T14:11:24.397Z,19.27
2018-05-25T14:13:52.000Z,18.92
2018-05-25T14:16:19.582Z,18.84
2018-05-25T14:18:47.161Z,18.83
2018-05-25T14:21:14.755Z,18.75
2018-05-25T14:23:42.344Z,18.74
2018-05-25T14:26:09.968Z,18.72
2018-05-25T14:28:37.542Z,18.65
2018-05-25T14:31:05.106Z,18.64
2018-05-25T14:33:32.714Z,18.62
2018-05-25T14:36:00.288Z,18.62
2018-05-25T14:38:27.965Z,18.62
2018-05-25T14:40:55.564Z,18.65
2018-05-25T14:43:23.165Z,18.67
2018-05-25T14:45:50.752Z,18.77
2018-05-25T14:48:18.329Z,18.83
2018-05-25T14:50:45.972Z,18.92
2018-05-25T14:53:13.563Z,19.02
2018-05-25T14:55:41.137Z,19.12
2018-05-25T14:58:08.717Z,19.17
2018-05-25T15:00:36.300Z,19.24
2018-05-25T15:03:03.929Z,19.34
2018-05-25T15:05:31.720Z,19.42
2018-05-25T15:07:59.399Z,19.49
2018-05-25T15:10:27.149Z,19.49
2018-05-25T15:12:54.724Z,19.52
2018-05-25T15:15:22.372Z,19.52
2018-05-25T15:17:49.945Z,19.56
2018-05-25T15:20:17.637Z,19.52
2018-05-25T15:22:45.209Z,19.46
2018-05-25T15:25:12.864Z,19.47
2018-05-25T15:27:40.453Z,19.48
2018-05-25T15:30:08.020Z,19.50
2018-05-25T15:32:35.724Z,19.52
2018-05-25T15:35:03.328Z,19.57
2018-05-25T15:37:30.916Z,19.59
2018-05-25T15:39:58.485Z,19.62
2018-05-25T15:42:26.069Z,19.61
2018-05-25T15:49:59.423Z,19.67
2018-05-25T15:52:27.019Z,19.65
2018-05-25T15:54:54.707Z,19.61
2018-05-25T15:57:22.337Z,19.67
2018-05-25T15:59:49.929Z,19.65
2018-05-25T16:02:17.557Z,19.66
2018-05-25T16:04:45.217Z,19.65
2018-05-25T16:07:12.967Z,19.63
2018-05-25T16:09:40.643Z,19.61
2018-05-25T16:12:08.454Z,19.63
2018-05-25T16:14:36.068Z,19.68
2018-05-25T16:17:04.472Z,19.69
2018-05-25T16:19:32.123Z,19.73
2018-05-25T16:21:59.777Z,19.70
2018-05-25T16:24:27.532Z,19.72
2018-05-25T16:26:55.136Z,19.73
2018-05-25T16:29:22.716Z,19.73
2018-05-25T16:31:50.261Z,19.66
2018-05-25T16:34:17.933Z,19.69
2018-05-25T16:36:45.536Z,19.71
2018-05-25T16:39:13.080Z,19.73
2018-05-25T16:41:40.619Z,19.70
2018-05-25T16:44:08.284Z,19.71
2018-05-25T16:46:36.224Z,19.70
2018-05-25T16:49:04.048Z,19.68
2018-05-25T16:51:31.634Z,19.67
2018-05-25T16:53:59.181Z,19.63
2018-05-25T16:56:26.830Z,19.59
2018-05-25T16:58:54.450Z,19.53
2018-05-25T17:01:22.065Z,19.50
2018-05-25T17:03:49.616Z,19.52
2018-05-25T17:06:17.312Z,19.50
2018-05-25T17:08:45.084Z,19.48
2018-05-25T17:11:12.741Z,19.48
2018-05-25T17:13:40.342Z,19.48
2018-05-25T17:16:07.933Z,19.46
2018-05-25T17:18:35.609Z,19.38
2018-05-25T17:21:03.300Z,19.37
2018-05-25T17:23:31.026Z,19.36
2018-05-25T17:25:58.728Z,19.37
2018-05-25T17:28:26.392Z,19.32
2018-05-25T17:30:54.061Z,19.34
2018-05-25T17:33:21.664Z,19.32
2018-05-25T17:35:49.334Z,19.25
2018-05-25T17:38:16.898Z,19.22
2018-05-25T17:40:44.496Z,19.17
2018-05-25T17:43:12.129Z,19.13
2018-05-25T17:45:39.675Z,19.10
2018-05-25T17:48:07.359Z,19.06
2018-05-25T17:50:35.029Z,19.04
2018-05-25T17:53:02.630Z,19.02
2018-05-25T17:55:30.260Z,18.97
2018-05-25T17:57:57.801Z,18.92
2018-05-25T18:00:25.401Z,18.89
2018-05-25T18:02:52.973Z,18.87
2018-05-25T18:05:21.025Z,18.82
2018-05-25T18:07:48.645Z,18.80
2018-05-25T18:10:16.316Z,18.76
2018-05-25T18:12:43.833Z,18.75
2018-05-25T18:15:11.433Z,18.75
2018-05-25T18:17:39.050Z,18.74
2018-05-25T18:20:06.706Z,18.72
2018-05-25T18:22:34.378Z,18.69
2018-05-25T18:25:01.974Z,18.67
2018-05-25T18:27:29.602Z,18.65
2018-05-25T18:29:57.277Z,18.61
2018-05-25T18:32:25.004Z,18.52
2018-05-25T18:34:52.641Z,18.45
2018-05-25T18:37:20.267Z,18.41
2018-05-25T18:39:47.941Z,18.43
2018-05-25T18:42:15.560Z,18.45
2018-05-25T18:44:43.186Z,18.47
2018-05-25T18:47:11.428Z,18.47
2018-05-25T18:49:38.972Z,18.45
2018-05-25T18:52:06.604Z,18.46
2018-05-25T18:54:34.270Z,18.46
2018-05-25T18:57:01.877Z,18.47
2018-05-25T18:59:29.428Z,18.49
2018-05-25T19:01:57.109Z,18.53
2018-05-25T19:04:24.869Z,18.57
2018-05-25T19:06:52.570Z,18.58
2018-05-25T19:09:20.156Z,18.61
2018-05-25T19:11:47.790Z,18.62
2018-05-25T19:14:15.456Z,18.58
2018-05-25T19:16:43.124Z,18.59
2018-05-25T19:19:10.703Z,18.53
2018-05-25T19:21:38.293Z,18.48
2018-05-25T19:24:05.889Z,18.42
2018-05-25T19:26:33.521Z,18.34
2018-05-25T19:29:01.121Z,18.33
2018-05-25T19:31:28.723Z,18.29
2018-05-25T19:33:56.333Z,18.24
2018-05-25T19:36:24.093Z,18.21
2018-05-25T19:38:52.609Z,18.21
2018-05-25T19:41:21.030Z,18.21
2018-05-25T19:43:48.818Z,18.24
2018-05-25T19:46:16.433Z,18.26
2018-05-25T19:48:44.045Z,18.31
2018-05-25T19:51:11.735Z,18.34
2018-05-25T19:53:39.392Z,18.35
2018-05-25T19:56:07.029Z,18.32
2018-05-25T19:58:35.208Z,18.29
2018-05-25T20:01:05.620Z,18.27
2018-05-25T20:03:33.213Z,18.25
2018-05-25T20:06:01.717Z,18.21
2018-05-25T20:08:29.700Z,18.22
2018-05-25T20:10:57.450Z,18.23
2018-05-25T20:13:25.101Z,18.26
2018-05-25T20:15:53.549Z,18.22
2018-05-25T20:18:21.163Z,18.17
2018-05-25T20:20:49.677Z,18.09
2018-05-25T20:23:17.378Z,18.00
2018-05-25T20:25:44.856Z,17.89
2018-05-25T20:28:12.392Z,17.77
2018-05-25T20:30:40.004Z,17.69
2018-05-25T20:33:07.618Z,17.62
2018-05-25T20:35:35.173Z,17.57
2018-05-25T20:38:02.817Z,17.52
2018-05-25T20:40:30.507Z,17.45
2018-05-25T20:42:58.113Z,17.41
2018-05-25T20:45:25.666Z,17.34
2018-05-25T20:47:53.330Z,17.28
2018-05-25T20:50:21.000Z,17.28
2018-05-25T20:52:48.718Z,17.28
2018-05-25T20:55:16.349Z,17.23
2018-05-25T20:57:44.123Z,17.27
2018-05-25T21:00:11.673Z,17.25
2018-05-25T21:02:42.020Z,17.28
2018-05-25T21:05:09.817Z,17.29
2018-05-25T21:07:37.420Z,17.31
2018-05-25T21:10:04.959Z,17.33
2018-05-25T21:12:32.554Z,17.29
2018-05-25T21:15:00.181Z,17.27
2018-05-25T21:17:27.728Z,17.27
2018-05-25T21:19:55.343Z,17.27
2018-05-25T21:22:24.084Z,17.25
2018-05-25T21:24:51.639Z,17.23
2018-05-25T21:27:19.186Z,17.22
2018-05-25T21:29:46.911Z,17.20
2018-05-25T21:32:15.141Z,17.15
2018-05-25T21:34:43.485Z,17.13
2018-05-25T21:37:11.080Z,17.11
2018-05-25T21:39:39.563Z,17.10
2018-05-25T21:42:07.171Z,17.10
2018-05-25T21:44:35.036Z,17.07
2018-05-25T21:47:02.746Z,17.05
2018-05-25T21:49:30.428Z,17.02
2018-05-25T21:51:57.966Z,17.01
2018-05-25T21:54:25.876Z,16.99
2018-05-25T21:56:54.312Z,16.97
2018-05-25T21:59:24.973Z,16.97
2018-05-25T22:01:53.534Z,16.97
2018-05-25T22:04:21.312Z,16.94
2018-05-25T22:06:48.946Z,16.93
2018-05-25T22:09:16.520Z,16.92
2018-05-25T22:11:44.244Z,16.89
2018-05-25T22:14:11.856Z,16.90
2018-05-25T22:16:39.590Z,16.86
2018-05-25T22:19:07.177Z,16.81
2018-05-25T22:21:34.720Z,16.82
2018-05-25T22:24:02.320Z,16.79
2018-05-25T22:26:30.811Z,16.78
2018-05-25T22:28:58.625Z,16.77
2018-05-25T22:31:26.220Z,16.74
2018-05-25T22:33:54.952Z,16.71
2018-05-25T22:36:22.606Z,16.71
2018-05-25T22:38:50.296Z,16.71
2018-05-25T22:41:18.144Z,16.69
2018-05-25T22:43:57.389Z,16.68
2018-05-25T22:46:36.717Z,16.65
2018-05-25T22:49:15.997Z,16.63
2018-05-25T22:51:55.458Z,16.57
2018-05-25T22:54:42.866Z,16.55
2018-05-25T22:57:10.582Z,16.51
2018-05-25T22:59:39.420Z,16.47
2018-05-25T23:02:07.012Z,16.42
2018-05-25T23:04:35.413Z,16.38
2018-05-25T23:07:03.008Z,16.37
2018-05-25T23:09:30.568Z,16.35
2018-05-25T23:11:58.124Z,16.35
2018-05-25T23:14:25.691Z,16.33
2018-05-25T23:16:53.297Z,16.34
2018-05-25T23:19:20.967Z,16.33
2018-05-25T23:21:49.536Z,16.32
2018-05-25T23:24:17.153Z,16.33
2018-05-25T23:26:45.093Z,16.33
2018-05-25T23:29:15.849Z,16.33
2018-05-25T23:31:44.184Z,16.32
2018-05-25T23:34:12.055Z,16.35
2018-05-25T23:36:39.667Z,16.33
2018-05-25T23:39:07.232Z,16.34
2018-05-25T23:41:34.920Z,16.36
2018-05-25T23:44:02.525Z,16.34
2018-05-25T23:46:30.177Z,16.31
2018-05-25T23:48:57.922Z,16.26
2018-05-25T23:51:28.896Z,16.20
2018-05-25T23:53:57.368Z,16.17
2018-05-25T23:56:25.692Z,16.13
2018-05-25T23:58:53.350Z,16.10
